Weather History for College Park, MD

Change the Weather History Date:

Thursday, October 24, 2013

  Actual Average Record
Temperature  
Mean Temperature 45 °F -  
Max Temperature 53 °F 66 °F 83 °F (1978)
Min Temperature 36 °F 44 °F 25 °F (1964)
Degree Days  
Heating Degree Days 20    
Moisture  
Dew Point 31 °F    
Average Humidity 58    
Maximum Humidity 91    
Minimum Humidity 32    
Precipitation  
Precipitation 0.00 in - - ()
Sea Level Pressure  
Sea Level Pressure 30.03 in    
Wind  
Wind Speed 5 mph (West)    
Max Wind Speed 16 mph    
Max Gust Speed 23 mph    
Visibility 10 miles    
Events      
Averages and records for this station are not official NWS values.
T = Trace of Precipitation, MM = Missing Value Source: NWS Daily Summary

Daily Weather History Graph

Daily Weather History Graph

Search for Another Location

Airport:

Trip Planner

Search our weather history database for the weather conditions in past years. The results will help you decide how hot, cold, wet, or windy it might be!

Date:

Astronomy

Oct. 24, 2013 Rise Set
Actual Time 7:26 AM EDT 6:16 PM EDT
Civil Twilight 6:59 AM EDT 6:43 PM EDT
Nautical Twilight 6:28 AM EDT 7:14 PM EDT
Astronomical Twilight 5:57 AM EDT 7:45 PM EDT
Moon 10:40 PM EDT (10/24) 12:25 PM EDT (10/24)
Length of Visible Light 11h 44m
Length of Day
10h 49m
Waning Gibbous, 71% of the Moon is Illuminated
Oct 24
Waning Gibbous
Oct 26
Last Quarter
Nov 3
New
Nov 10
First Quarter
Nov 17
Full

Hourly Weather History & Observations

Time (EDT) Temp. Windchill Dew Point Humidity Pressure Visibility Wind Dir Wind Speed Gust Speed Precip Events Conditions
12:10 AM 46.4 °F 42.9 °F 37.9 °F 72% 29.90 in 10.0 mi West 6.9 mph - N/A   Clear
12:30 AM 46.6 °F - 36.5 °F 68% 29.90 in 10.0 mi WNW 8.1 mph - N/A   Clear
12:50 AM 46.4 °F 43.5 °F 36.5 °F 68% 29.91 in 10.0 mi West 5.8 mph - N/A   Clear
1:10 AM 45.9 °F - 36.7 °F 70% 29.92 in 10.0 mi Calm Calm - N/A   Clear
1:30 AM 45.5 °F - 37.0 °F 72% 29.93 in 10.0 mi Calm Calm - N/A   Clear
1:50 AM 44.8 °F - 37.6 °F 76% 29.94 in 10.0 mi Calm Calm - N/A   Scattered Clouds
2:10 AM 43.9 °F - 37.4 °F 78% 29.94 in 10.0 mi Calm Calm - N/A   Clear
2:30 AM 43.5 °F - 36.9 °F 77% 29.94 in 10.0 mi Calm Calm - N/A   Clear
2:50 AM 43.9 °F - 36.0 °F 74% 29.94 in 10.0 mi Calm Calm - N/A   Clear
3:10 AM 43.9 °F 42.3 °F 35.6 °F 73% 29.95 in 10.0 mi WSW 3.5 mph - N/A   Clear
3:30 AM 43.3 °F 40.7 °F 35.2 °F 73% 29.95 in 10.0 mi West 4.6 mph - N/A   Clear
3:50 AM 43.7 °F 42.1 °F 34.9 °F 71% 29.95 in 10.0 mi WSW 3.5 mph - N/A   Clear
4:10 AM 43.3 °F 40.7 °F 34.7 °F 72% 29.96 in 10.0 mi West 4.6 mph - N/A   Clear
4:30 AM 43.5 °F 40.1 °F 34.7 °F 71% 29.96 in 10.0 mi West 5.8 mph - N/A   Clear
4:50 AM 43.5 °F 40.1 °F 34.3 °F 70% 29.96 in 10.0 mi West 5.8 mph - N/A   Clear
5:10 AM 43.2 °F 41.5 °F 34.3 °F 71% 29.97 in 10.0 mi West 3.5 mph - N/A   Clear
5:30 AM 42.8 °F 40.1 °F 34.3 °F 72% 29.97 in 10.0 mi West 4.6 mph - N/A   Clear
5:50 AM 42.4 °F 40.7 °F 34.2 °F 72% 29.99 in 10.0 mi West 3.5 mph - N/A   Clear
6:10 AM 42.4 °F - 34.0 °F 72% 29.99 in 10.0 mi Calm Calm - N/A   Clear
6:30 AM 42.6 °F 40.9 °F 33.8 °F 71% 29.99 in 10.0 mi WSW 3.5 mph - N/A   Clear
6:50 AM 42.1 °F 37.7 °F 33.6 °F 72% 29.99 in 10.0 mi WNW 6.9 mph - N/A   Clear
7:10 AM 42.4 °F 38.8 °F 33.8 °F 71% 30.00 in 10.0 mi WNW 5.8 mph - N/A   Clear
7:30 AM 42.8 °F 39.3 °F 33.6 °F 70% 30.01 in 10.0 mi West 5.8 mph - N/A   Clear
7:50 AM 42.6 °F 40.9 °F 33.6 °F 70% 30.02 in 10.0 mi WNW 3.5 mph - N/A   Clear
8:10 AM 43.7 °F - 33.8 °F 68% 30.02 in 10.0 mi Calm Calm - N/A   Clear
8:30 AM 44.8 °F 43.3 °F 34.0 °F 66% 30.02 in 10.0 mi WSW 3.5 mph - N/A   Clear
8:50 AM 46.4 °F 42.9 °F 34.2 °F 62% 30.03 in 10.0 mi West 6.9 mph - N/A   Clear
9:10 AM 47.8 °F - 33.6 °F 58% 30.03 in 10.0 mi WNW 5.8 mph - N/A   Clear
9:25 AM 48.7 °F - 33.4 °F 56% 30.04 in 10.0 mi WNW 10.4 mph 16.1 mph N/A   Clear
9:50 AM 49.5 °F - 32.0 °F 51% 30.04 in 10.0 mi WNW 10.4 mph 16.1 mph N/A   Clear
10:10 AM 50.2 °F - 30.7 °F 47% 30.04 in 10.0 mi WNW 12.7 mph 16.1 mph N/A   Clear
10:30 AM 50.5 °F - 30.6 °F 46% 30.04 in 10.0 mi West 6.9 mph - N/A   Clear
10:50 AM 51.4 °F - 29.5 °F 43% 30.04 in 10.0 mi WNW 9.2 mph 16.1 mph N/A   Clear
11:10 AM 51.8 °F - 27.7 °F 39% 30.04 in 10.0 mi West 10.4 mph - N/A   Scattered Clouds
11:30 AM 52.5 °F - 28.0 °F 39% 30.04 in 10.0 mi NW 9.2 mph 20.7 mph N/A   Scattered Clouds
11:50 AM 50.7 °F - 27.9 °F 41% 30.04 in 10.0 mi WNW 10.4 mph 23.0 mph N/A   Mostly Cloudy
12:10 PM 50.0 °F - 28.8 °F 44% 30.04 in 10.0 mi WNW 6.9 mph 11.5 mph N/A   Mostly Cloudy
12:30 PM 50.0 °F - 29.8 °F 46% 30.04 in 10.0 mi West 5.8 mph - N/A   Overcast
12:50 PM 50.0 °F - 30.2 °F 47% 30.04 in 10.0 mi West 8.1 mph 17.3 mph N/A   Mostly Cloudy
1:10 PM 50.0 °F - 30.4 °F 47% 30.03 in 10.0 mi WNW 9.2 mph - N/A   Scattered Clouds
1:30 PM 52.9 °F - 30.7 °F 43% 30.02 in 10.0 mi West 5.8 mph - N/A   Scattered Clouds
1:50 PM 51.3 °F - 28.2 °F 41% 30.02 in 10.0 mi West 10.4 mph 16.1 mph N/A   Mostly Cloudy
2:10 PM 53.2 °F - 29.8 °F 41% 30.01 in 10.0 mi NNW 9.2 mph - N/A   Mostly Cloudy
2:30 PM 50.2 °F - 30.0 °F 46% 30.02 in 10.0 mi WNW 8.1 mph 16.1 mph N/A   Mostly Cloudy
2:50 PM 50.5 °F - 27.9 °F 42% 30.02 in 10.0 mi WNW 9.2 mph - N/A   Overcast
3:10 PM 52.5 °F - 28.6 °F 40% 30.02 in 10.0 mi West 10.4 mph - N/A   Overcast
3:30 PM 50.9 °F - 26.4 °F 39% 30.03 in 10.0 mi West 16.1 mph 21.9 mph N/A   Scattered Clouds
3:50 PM 51.8 °F - 25.0 °F 35% 30.03 in 10.0 mi WNW 11.5 mph 23.0 mph N/A   Scattered Clouds
4:10 PM 52.7 °F - 27.0 °F 37% 30.04 in 10.0 mi WNW 8.1 mph - N/A   Scattered Clouds
4:30 PM 51.4 °F - 24.6 °F 35% 30.04 in 10.0 mi WNW 9.2 mph 17.3 mph N/A   Scattered Clouds
4:50 PM 51.1 °F - 23.7 °F 34% 30.04 in 10.0 mi West 8.1 mph 18.4 mph N/A   Clear
5:10 PM 51.6 °F - 22.6 °F 32% 30.04 in 10.0 mi WNW 9.2 mph 19.6 mph N/A   Clear
5:30 PM 51.1 °F - 23.9 °F 35% 30.05 in 10.0 mi West 8.1 mph 17.3 mph N/A   Clear
5:50 PM 50.4 °F - 24.3 °F 36% 30.05 in 10.0 mi WNW 5.8 mph - N/A   Clear
6:10 PM 49.3 °F - 23.5 °F 36% 30.06 in 10.0 mi WNW 6.9 mph - N/A   Clear
6:30 PM 48.6 °F - 24.1 °F 38% 30.07 in 10.0 mi WNW 8.1 mph - N/A   Clear
6:50 PM 48.2 °F - 25.0 °F 40% 30.08 in 10.0 mi Calm Calm - N/A   Clear
7:10 PM 47.3 °F - 26.2 °F 44% 30.09 in 10.0 mi West 4.6 mph - N/A   Clear
7:30 PM 46.4 °F - 27.3 °F 47% 30.09 in 10.0 mi Calm Calm - N/A   Clear
7:50 PM 46.2 °F 45.0 °F 28.2 °F 50% 30.09 in 10.0 mi West 3.5 mph - N/A   Clear
8:10 PM 45.9 °F 44.6 °F 28.8 °F 51% 30.10 in 10.0 mi West 3.5 mph - N/A   Clear
8:30 PM 45.9 °F - 29.3 °F 52% 30.11 in 10.0 mi Calm Calm - N/A   Clear
8:50 PM 43.0 °F 40.3 °F 30.9 °F 62% 30.10 in 10.0 mi WSW 4.6 mph - N/A   Clear
9:10 PM 44.4 °F - 30.2 °F 57% 30.11 in 10.0 mi Calm Calm - N/A   Clear
9:30 PM 40.6 °F - 32.5 °F 73% 30.12 in 10.0 mi Calm Calm - N/A   Clear
9:50 PM 42.4 °F - 31.5 °F 65% 30.12 in 10.0 mi Calm Calm - N/A   Clear
10:10 PM 38.3 °F - 32.7 °F 80% 30.13 in 10.0 mi Calm Calm - N/A   Clear
10:30 PM 38.3 °F - 33.8 °F 84% 30.13 in 10.0 mi Calm Calm - N/A   Clear
10:50 PM 37.4 °F - 33.3 °F 85% 30.14 in 10.0 mi Calm Calm - N/A   Clear
11:05 PM 37.0 °F - 33.1 °F 86% 30.14 in 10.0 mi Calm Calm - N/A   Clear
11:30 PM 37.4 °F - 33.8 °F 87% 30.14 in 10.0 mi Calm Calm - N/A   Clear
11:50 PM 36.0 °F - 33.4 °F 91% 30.15 in 10.0 mi Calm Calm - N/A   Clear